Time;durP1;ratioP1;P1;durP2;ratioP2;P2;SDS_P1;SDS_P2;PMS_P1;PMS_P2;Temp;Humidity;BMP_temperature;BMP_pressure;BME280_temperature;BME280_humidity;BME280_pressure;Samples;Min_cycle;Max_cycle;Signal;HPM_P1;HPM_P2
2022/05/06 00:00:31;;;;;;;6.85;3.75;;;;;;;8.50;65.63;101299.50;5009845;28;20449;-73
2022/05/06 00:02:56;;;;;;;8.77;4.40;;;;;;;8.52;65.62;101300.41;5011135;28;20121;-73
2022/05/06 00:05:21;;;;;;;5.43;3.10;;;;;;;8.54;65.82;101309.19;5007449;28;20120;-73
2022/05/06 00:07:47;;;;;;;4.78;3.45;;;;;;;8.53;66.26;101313.56;5011378;28;20162;-73
2022/05/06 00:10:14;;;;;;;6.15;3.30;;;;;;;8.54;66.38;101311.81;5011379;28;20400;-73
2022/05/06 00:12:39;;;;;;;5.22;2.92;;;;;;;8.58;66.04;101310.13;5010316;28;20021;-73
2022/05/06 00:15:07;;;;;;;5.07;2.75;;;;;;;8.55;66.85;101308.34;5015531;28;20083;-73
2022/05/06 00:17:33;;;;;;;5.60;3.40;;;;;;;8.42;67.28;101306.38;5015228;28;20061;-73
2022/05/06 00:19:58;;;;;;;6.60;3.50;;;;;;;8.35;66.92;101303.59;5015363;28;20045;-72
2022/05/06 00:22:24;;;;;;;6.85;3.00;;;;;;;8.31;67.38;101311.47;5014919;28;20037;-73
2022/05/06 00:24:51;;;;;;;8.50;3.28;;;;;;;8.21;67.59;101307.78;5015410;28;20095;-73
2022/05/06 00:27:17;;;;;;;8.07;3.55;;;;;;;8.07;66.40;101306.69;5015152;28;20113;-73
2022/05/06 00:29:43;;;;;;;5.20;2.80;;;;;;;8.01;66.80;101306.56;5015101;28;20058;-73
2022/05/06 00:32:08;;;;;;;8.23;3.40;;;;;;;8.03;67.36;101304.84;5014831;28;20487;-73
2022/05/06 00:34:34;;;;;;;5.82;2.70;;;;;;;8.04;67.80;101306.63;5014659;28;20046;-73
2022/05/06 00:36:59;;;;;;;6.15;3.30;;;;;;;8.00;68.10;101299.56;5013177;28;20049;-73
2022/05/06 00:39:25;;;;;;;5.53;3.00;;;;;;;8.00;68.10;101299.56;5009345;28;20056;-73
2022/05/06 00:41:54;;;;;;;5.43;2.75;;;;;;;8.07;68.18;101298.81;5013333;28;20034;-73
2022/05/06 00:44:20;;;;;;;8.82;3.15;;;;;;;8.04;67.93;101309.25;5014436;28;20064;-72
2022/05/06 00:46:46;;;;;;;4.65;2.90;;;;;;;8.00;68.11;101305.69;5014212;28;20053;-73
2022/05/06 00:49:14;;;;;;;5.40;3.10;;;;;;;8.00;68.09;101312.69;5014342;28;20026;-72
2022/05/06 00:51:42;;;;;;;7.18;4.10;;;;;;;7.93;68.59;101316.94;5010777;28;20414;-72
2022/05/06 00:54:08;;;;;;;6.55;3.42;;;;;;;7.88;68.98;101308.97;5013902;28;20041;-72
2022/05/06 00:56:33;;;;;;;8.82;4.13;;;;;;;7.89;68.33;101313.41;5010735;28;20030;-72
2022/05/06 00:58:59;;;;;;;7.75;3.63;;;;;;;7.88;67.95;101319.50;5010721;28;20116;-73
2022/05/06 01:01:24;;;;;;;9.95;4.00;;;;;;;7.86;68.79;101321.25;5014312;28;20038;-73
2022/05/06 01:03:50;;;;;;;5.05;3.00;;;;;;;7.84;68.58;101317.69;5009873;28;20041;-72
2022/05/06 01:06:16;;;;;;;6.55;3.70;;;;;;;7.82;70.16;101319.41;5014561;28;20041;-73
2022/05/06 01:08:47;;;;;;;6.55;3.38;;;;;;;7.76;71.22;101319.28;5029719;28;20482;-73
2022/05/06 01:11:17;;;;;;;6.78;3.70;;;;;;;7.65;70.87;101331.34;5012885;28;20029;-73
2022/05/06 01:13:45;;;;;;;5.57;3.53;;;;;;;7.57;70.48;101320.72;5012859;28;20030;-72
2022/05/06 01:16:15;;;;;;;5.80;3.20;;;;;;;7.50;70.23;101329.31;5011910;28;20034;-72
2022/05/06 01:18:47;;;;;;;5.00;2.90;;;;;;;7.49;69.84;101329.28;5013260;28;20790;-72
2022/05/06 01:21:22;;;;;;;5.03;3.10;;;;;;;7.51;70.04;101330.19;5014039;28;20038;-73
2022/05/06 01:23:47;;;;;;;5.55;3.05;;;;;;;7.47;70.16;101327.53;5011220;28;20038;-72
2022/05/06 01:26:13;;;;;;;6.18;4.10;;;;;;;7.33;71.46;101326.34;5012680;28;20044;-72
2022/05/06 01:28:42;;;;;;;5.65;3.65;;;;;;;7.28;71.69;101328.00;5012562;28;20100;-72
2022/05/06 01:31:08;;;;;;;6.32;3.42;;;;;;;7.20;71.75;101326.97;5013788;28;20105;-73
2022/05/06 01:33:35;;;;;;;5.75;3.13;;;;;;;7.18;72.15;101332.19;5058855;22;20050;-74
2022/05/06 01:36:04;;;;;;;5.38;3.88;;;;;;;7.20;71.97;101329.59;4979017;28;20448;-74
2022/05/06 01:38:37;;;;;;;5.18;3.30;;;;;;;7.21;71.65;101334.00;4995273;28;20509;-73
2022/05/06 01:41:06;;;;;;;7.57;3.67;;;;;;;7.14;71.63;101330.34;4984581;28;20030;-73
2022/05/06 01:44:01;;;;;;;6.93;4.05;;;;;;;7.17;71.46;101337.41;4986318;28;20053;-74
2022/05/06 01:46:28;;;;;;;7.03;3.92;;;;;;;7.13;71.14;101333.84;4984175;28;20042;-75
2022/05/06 01:49:00;;;;;;;6.35;3.78;;;;;;;7.12;71.36;101333.81;5004830;28;20036;-76
2022/05/06 01:51:30;;;;;;;6.15;3.47;;;;;;;7.11;70.31;101334.66;4979694;28;20038;-75
2022/05/06 01:53:56;;;;;;;11.07;4.55;;;;;;;6.99;71.78;101340.53;4978305;28;20034;-76
2022/05/06 01:56:22;;;;;;;6.72;3.72;;;;;;;6.93;71.69;101336.03;5002025;28;20041;-76
2022/05/06 01:58:49;;;;;;;6.97;3.53;;;;;;;6.83;72.12;101339.31;4985161;28;20107;-75
2022/05/06 02:01:15;;;;;;;5.45;3.30;;;;;;;6.78;72.37;101336.56;4992394;28;20026;-75
2022/05/06 02:06:29;;;;;;;5.25;3.40;;;;;;;6.64;72.91;101332.78;4980009;28;20080;-75
2022/05/06 02:09:05;;;;;;;6.78;3.67;;;;;;;6.67;72.36;101332.84;4978817;28;20031;-76
2022/05/06 02:11:39;;;;;;;7.30;4.60;;;;;;;6.76;71.55;101338.31;4996513;28;20121;-75
2022/05/06 02:14:05;;;;;;;7.57;4.88;;;;;;;6.85;71.54;101335.00;4987074;28;20026;-75
2022/05/06 02:16:44;;;;;;;6.70;4.10;;;;;;;6.89;71.66;101349.06;5004990;28;20058;-75
2022/05/06 02:19:20;;;;;;;5.85;3.85;;;;;;;6.81;71.95;101346.25;4983270;28;20030;-76
2022/05/06 02:22:05;;;;;;;5.72;3.47;;;;;;;6.76;71.97;101347.91;4981406;28;20061;-76
2022/05/06 02:24:48;;;;;;;7.57;3.72;;;;;;;6.68;72.25;101350.38;5001695;28;20061;-75
2022/05/06 02:27:33;;;;;;;6.30;4.20;;;;;;;6.45;73.30;101352.44;5001674;28;20044;-76
2022/05/06 02:35:32;;;;;;;7.10;4.00;;;;;;;6.53;72.56;101355.25;4983615;28;20113;-76
2022/05/06 02:38:00;;;;;;;5.07;3.63;;;;;;;6.54;72.66;101352.66;4972258;28;20050;-75
2022/05/06 02:40:28;;;;;;;6.90;4.20;;;;;;;6.44;72.36;101361.16;4993685;28;20488;-75
2022/05/06 02:42:55;;;;;;;5.57;3.70;;;;;;;6.44;73.02;101355.03;5001031;28;20553;-75
2022/05/06 02:45:22;;;;;;;7.82;4.47;;;;;;;6.43;73.01;101354.13;4978607;28;20030;-76
2022/05/06 02:47:47;;;;;;;6.35;3.90;;;;;;;6.42;73.49;101355.00;4967613;28;20034;-75
2022/05/06 02:50:13;;;;;;;7.10;5.28;;;;;;;6.46;73.31;101358.56;5004370;28;20516;-75
2022/05/06 02:52:39;;;;;;;9.40;4.07;;;;;;;6.50;73.64;101353.44;4976396;28;20030;-75
2022/05/06 02:55:05;;;;;;;8.57;4.80;;;;;;;6.54;72.99;101354.38;4985547;28;20412;-76
2022/05/06 02:57:31;;;;;;;7.85;4.28;;;;;;;6.55;72.79;101359.69;4977813;28;20034;-75
2022/05/06 02:59:56;;;;;;;8.75;4.50;;;;;;;6.49;73.18;101361.25;4984156;28;20121;-75
2022/05/06 03:02:24;;;;;;;7.57;4.85;;;;;;;6.45;73.07;101362.06;4975117;28;20089;-76
2022/05/06 03:04:50;;;;;;;8.68;4.60;;;;;;;6.31;72.79;101353.84;4986288;28;20070;-75
2022/05/06 03:07:19;;;;;;;8.40;4.85;;;;;;;6.24;72.75;101362.41;4977067;28;20034;-75
2022/05/06 03:09:48;;;;;;;8.95;5.03;;;;;;;6.17;73.46;101361.38;5000282;28;20081;-75
2022/05/06 03:12:16;;;;;;;9.45;4.82;;;;;;;6.20;73.48;101363.19;4974655;28;20038;-75
2022/05/06 03:14:50;;;;;;;8.00;4.70;;;;;;;6.21;73.41;101359.69;4999711;28;20030;-75
2022/05/06 03:17:36;;;;;;;5.80;4.20;;;;;;;6.28;73.48;101352.03;4981186;28;20085;-75
2022/05/06 03:20:06;;;;;;;7.47;4.60;;;;;;;6.37;73.46;101354.00;5002374;28;20030;-75
2022/05/06 03:22:35;;;;;;;8.27;5.57;;;;;;;6.44;72.79;101362.88;5002778;28;20404;-75
2022/05/06 03:25:01;;;;;;;7.78;5.00;;;;;;;6.43;72.67;101364.63;4982925;28;20027;-76
2022/05/06 03:30:11;;;;;;;8.68;5.15;;;;;;;6.36;73.17;101363.59;4982837;28;20046;-75
2022/05/06 03:32:38;;;;;;;7.78;4.57;;;;;;;6.39;73.77;101365.38;4984886;28;20134;-75
2022/05/06 03:35:05;;;;;;;10.60;6.05;;;;;;;6.44;74.13;101371.63;4976668;28;20501;-75
2022/05/06 03:37:33;;;;;;;8.98;5.47;;;;;;;6.47;73.90;101363.88;4983980;28;20066;-76
2022/05/06 03:39:59;;;;;;;10.70;4.90;;;;;;;6.54;73.17;101365.75;4958597;28;20030;-75
2022/05/06 03:42:24;;;;;;;7.93;4.90;;;;;;;6.62;72.88;101375.56;4974635;28;20061;-76
2022/05/06 03:44:50;;;;;;;8.45;5.28;;;;;;;6.66;73.35;101382.66;5000852;28;20531;-75
2022/05/06 03:47:16;;;;;;;7.78;4.93;;;;;;;6.70;72.35;101371.38;4997956;28;20030;-75
2022/05/06 03:49:42;;;;;;;9.38;4.95;;;;;;;6.73;72.35;101377.59;5000199;28;20516;-75
2022/05/06 03:52:08;;;;;;;8.55;5.03;;;;;;;6.77;72.60;101386.41;4995086;28;20120;-75
2022/05/06 03:54:34;;;;;;;9.85;5.43;;;;;;;6.84;71.93;101379.56;4998179;28;20058;-76
2022/05/06 03:57:00;;;;;;;7.25;5.10;;;;;;;6.83;71.90;101383.03;4974951;28;20038;-75
2022/05/06 03:59:26;;;;;;;7.85;5.10;;;;;;;6.85;72.46;101390.09;5001556;28;20475;-75
2022/05/06 04:02:00;;;;;;;6.05;4.65;;;;;;;6.86;71.76;101385.72;4992731;28;20400;-76
2022/05/06 04:04:30;;;;;;;8.80;4.72;;;;;;;6.87;71.73;101398.00;4982241;28;20034;-76
2022/05/06 04:06:59;;;;;;;9.80;4.93;;;;;;;6.82;71.47;101384.78;4984877;28;20623;-75
2022/05/06 04:09:26;;;;;;;8.82;5.00;;;;;;;6.79;71.92;101385.59;4976281;28;20115;-76
2022/05/06 04:11:51;;;;;;;14.75;5.10;;;;;;;6.85;72.20;101384.84;4967428;28;20085;-77
2022/05/06 04:14:17;;;;;;;9.52;5.25;;;;;;;6.91;72.19;101387.59;4992942;28;20446;-74
2022/05/06 04:16:45;;;;;;;7.47;5.63;;;;;;;6.91;72.22;101389.34;4972758;28;20034;-75
2022/05/06 04:19:21;;;;;;;14.68;8.27;;;;;;;6.89;73.04;101396.28;4999458;28;20548;-75
2022/05/06 04:24:39;;;;;;;10.93;6.15;;;;;;;6.93;72.81;101396.41;4973393;28;20092;-75
2022/05/06 04:27:05;;;;;;;9.70;5.80;;;;;;;6.93;72.91;101399.03;4999966;28;20274;-76
2022/05/06 04:29:31;;;;;;;7.68;5.53;;;;;;;7.05;72.53;101403.66;4991450;28;20072;-76
2022/05/06 04:31:56;;;;;;;7.22;4.78;;;;;;;7.14;71.89;101392.47;4980967;28;20031;-75
2022/05/06 04:34:22;;;;;;;8.32;5.32;;;;;;;7.26;71.15;101403.25;4983254;28;20577;-76
2022/05/06 04:36:48;;;;;;;8.77;4.97;;;;;;;7.35;71.01;101406.06;5001573;28;20112;-74
2022/05/06 04:39:14;;;;;;;9.25;5.10;;;;;;;7.38;70.77;101411.38;4971672;28;20129;-75
2022/05/06 04:41:47;;;;;;;7.50;5.03;;;;;;;7.48;71.14;101420.34;4996002;28;20080;-74
2022/05/06 04:44:14;;;;;;;8.45;5.43;;;;;;;7.61;69.99;101417.09;4982642;28;20042;-75
2022/05/06 04:46:39;;;;;;;9.10;6.03;;;;;;;7.76;69.66;101419.16;4975081;28;20629;-74
2022/05/06 04:49:05;;;;;;;10.23;5.50;;;;;;;7.89;69.29;101417.66;4998637;28;20104;-75
2022/05/06 04:51:31;;;;;;;10.23;6.25;;;;;;;7.98;69.31;101417.81;5000185;28;20594;-75
2022/05/06 04:53:57;;;;;;;10.18;6.43;;;;;;;8.10;68.55;101430.31;4998108;28;20088;-75
2022/05/06 04:56:22;;;;;;;9.52;6.22;;;;;;;8.20;68.74;101434.88;4974910;28;20034;-75
2022/05/06 04:58:49;;;;;;;9.02;5.10;;;;;;;8.33;68.19;101434.25;5000827;28;20026;-75
2022/05/06 05:01:23;;;;;;;18.15;13.50;;;;;;;8.47;67.45;101434.50;4981869;28;20026;-74
2022/05/06 05:03:49;;;;;;;11.25;7.38;;;;;;;8.60;67.63;101440.84;4992422;28;20519;-75
2022/05/06 05:06:14;;;;;;;10.70;6.55;;;;;;;8.67;67.28;101434.84;5003273;28;20017;-75
2022/05/06 05:08:41;;;;;;;7.93;4.82;;;;;;;8.69;67.65;101435.72;4978599;28;20034;-75
2022/05/06 05:11:08;;;;;;;11.75;6.68;;;;;;;8.59;68.37;101439.06;4985211;28;20049;-75
2022/05/06 05:13:40;;;;;;;10.07;5.93;;;;;;;8.74;68.40;101439.31;4974864;28;20031;-75
2022/05/06 05:16:11;;;;;;;7.43;5.50;;;;;;;8.92;68.01;101437.84;4969964;28;20034;-75
2022/05/06 05:18:38;;;;;;;8.02;6.22;;;;;;;9.01;68.17;101448.50;5002623;28;20038;-75
2022/05/06 05:21:03;;;;;;;7.88;5.22;;;;;;;9.20;67.54;101444.41;4976629;28;20164;-75
2022/05/06 05:23:29;;;;;;;7.75;5.15;;;;;;;9.40;67.24;101439.38;4976699;28;20038;-75
2022/05/06 05:25:55;;;;;;;11.63;5.47;;;;;;;9.56;66.93;101448.38;4974132;28;20038;-75
2022/05/06 05:28:21;;;;;;;10.20;5.72;;;;;;;9.71;66.18;101442.41;4987208;28;20056;-75
2022/05/06 05:30:47;;;;;;;7.68;5.95;;;;;;;9.86;66.17;101450.50;4987597;28;20059;-75
2022/05/06 05:33:12;;;;;;;11.50;6.40;;;;;;;10.01;66.20;101447.16;4982047;28;20512;-75
2022/05/06 05:35:45;;;;;;;9.02;6.22;;;;;;;10.12;65.52;101456.06;4976878;28;20035;-75
2022/05/06 05:38:11;;;;;;;7.07;6.07;;;;;;;10.21;64.72;101464.06;4984238;28;20084;-74
2022/05/06 05:40:38;;;;;;;10.20;5.90;;;;;;;10.24;64.58;101457.94;4977808;28;20113;-75
2022/05/06 05:48:19;;;;;;;97.70;75.63;;;;;;;10.29;63.99;101458.91;4977238;28;20034;-75
2022/05/06 05:48:37;;;;;;;13.70;7.07;;;;;;;10.46;64.00;101457.31;4982441;28;20492;-75
2022/05/06 05:51:03;;;;;;;8.27;5.50;;;;;;;10.52;63.37;101470.56;4999996;28;20529;-75
2022/05/06 05:53:37;;;;;;;9.18;5.50;;;;;;;10.64;62.90;101461.00;4976152;28;20046;-75
2022/05/06 05:56:03;;;;;;;11.07;5.63;;;;;;;10.71;63.29;101463.66;4983577;28;20027;-75
2022/05/06 05:58:28;;;;;;;13.93;6.55;;;;;;;10.75;62.92;101464.59;4986112;28;20041;-75
2022/05/06 06:00:57;;;;;;;13.45;6.35;;;;;;;10.86;63.33;101467.31;4978339;28;20030;-75
2022/05/06 06:03:29;;;;;;;9.77;6.60;;;;;;;10.92;63.01;101467.34;4984419;28;20033;-75
2022/05/06 06:05:54;;;;;;;8.65;5.82;;;;;;;11.00;62.91;101465.66;4984677;28;20121;-75
2022/05/06 06:08:21;;;;;;;11.68;7.65;;;;;;;11.11;63.62;101473.69;4986537;28;20034;-75
2022/05/06 06:10:47;;;;;;;7.90;6.10;;;;;;;11.26;63.27;101468.47;4961326;28;20045;-75
2022/05/06 06:13:16;;;;;;;8.07;6.63;;;;;;;11.44;63.17;101467.69;4984941;28;20035;-75
2022/05/06 06:15:45;;;;;;;9.63;6.83;;;;;;;11.49;63.33;101465.06;4984099;28;20032;-75
2022/05/06 06:18:11;;;;;;;11.32;6.70;;;;;;;11.61;62.82;101467.78;5003013;28;20679;-75
2022/05/06 06:20:37;;;;;;;10.23;6.28;;;;;;;11.78;63.06;101465.19;4977531;28;20030;-75
2022/05/06 06:23:03;;;;;;;10.10;7.82;;;;;;;11.88;62.41;101466.16;4982998;28;20119;-75
2022/05/06 06:25:29;;;;;;;13.23;7.82;;;;;;;11.99;62.04;101461.78;4978863;28;20026;-75
2022/05/06 06:27:56;;;;;;;10.05;6.97;;;;;;;12.05;62.30;101464.44;4983859;28;20065;-75
2022/05/06 06:30:23;;;;;;;10.63;6.57;;;;;;;12.19;62.14;101465.38;4984648;28;20386;-75
2022/05/06 06:32:50;;;;;;;12.25;7.50;;;;;;;12.32;62.00;101475.97;4976389;28;20102;-75
2022/05/06 06:35:16;;;;;;;12.90;7.50;;;;;;;12.33;61.81;101472.44;4982190;28;20037;-75
2022/05/06 06:37:52;;;;;;;12.68;7.50;;;;;;;12.38;61.75;101470.69;4974553;28;20057;-75
2022/05/06 06:40:21;;;;;;;9.93;7.38;;;;;;;12.48;62.03;101467.19;4984667;28;20030;-75
2022/05/06 06:42:47;;;;;;;15.60;9.50;;;;;;;12.61;61.65;101463.66;4972581;28;20405;-75
2022/05/06 06:45:31;;;;;;;11.80;8.10;;;;;;;12.76;61.91;101462.78;4996194;28;20109;-75
2022/05/06 06:48:16;;;;;;;15.63;9.00;;;;;;;12.92;62.04;101463.66;4999313;28;20053;-75
2022/05/06 06:50:56;;;;;;;12.95;7.80;;;;;;;12.94;61.62;101464.50;4974162;28;20404;-75
2022/05/06 06:53:23;;;;;;;12.45;8.10;;;;;;;13.10;61.65;101462.75;4999957;28;20112;-75
2022/05/06 06:55:48;;;;;;;9.75;7.93;;;;;;;13.20;61.80;101461.81;5000211;28;20485;-75
2022/05/06 06:58:14;;;;;;;15.73;8.88;;;;;;;13.36;61.34;101463.59;5002166;28;20034;-75
2022/05/06 07:00:42;;;;;;;15.13;10.25;;;;;;;13.54;61.18;101467.06;5000793;28;20034;-75
2022/05/06 07:03:08;;;;;;;14.02;8.88;;;;;;;13.64;61.16;101462.63;5001185;28;20060;-75
2022/05/06 07:05:34;;;;;;;14.38;9.48;;;;;;;13.74;60.73;101462.56;4999551;28;20065;-75
2022/05/06 07:13:29;;;;;;;11.77;7.88;;;;;;;14.11;60.18;101466.81;4999052;28;20034;-75
2022/05/06 07:15:54;;;;;;;15.82;12.32;;;;;;;13.99;60.38;101463.34;4973551;28;20046;-75
2022/05/06 07:18:19;;;;;;;14.57;8.75;;;;;;;14.02;60.43;101459.78;4996518;28;20244;-75
2022/05/06 07:20:45;;;;;;;11.38;7.85;;;;;;;14.16;60.18;101465.88;4999954;28;20364;-75
2022/05/06 07:23:10;;;;;;;18.52;9.18;;;;;;;14.38;59.96;101461.34;5001470;28;20038;-75
2022/05/06 07:25:37;;;;;;;13.65;8.18;;;;;;;14.48;59.83;101462.13;4977986;28;20064;-75
2022/05/06 07:28:03;;;;;;;15.60;8.43;;;;;;;14.68;59.30;101464.69;4996837;28;20041;-75
2022/05/06 07:30:29;;;;;;;9.98;7.90;;;;;;;14.75;59.58;101466.41;4998258;28;20042;-75
2022/05/06 07:32:54;;;;;;;15.38;9.65;;;;;;;14.80;59.74;101467.25;4960160;28;1002136;-75
2022/05/06 07:35:20;;;;;;;10.07;7.93;;;;;;;14.86;58.89;101474.28;4998206;28;20038;-75
2022/05/06 07:37:46;;;;;;;13.80;8.48;;;;;;;14.89;58.81;101475.13;4997795;28;20148;-75
2022/05/06 07:40:11;;;;;;;18.48;7.88;;;;;;;14.99;58.84;101472.38;5000574;28;20122;-75
2022/05/06 07:42:41;;;;;;;15.30;10.90;;;;;;;15.19;58.51;101473.03;5000776;28;20042;-75
2022/05/06 07:45:07;;;;;;;16.02;9.30;;;;;;;15.39;58.43;101464.00;5018485;22;20088;-74
2022/05/06 07:47:32;;;;;;;12.63;11.25;;;;;;;15.55;58.07;101470.91;5004592;28;20053;-74
2022/05/06 07:49:57;;;;;;;14.13;10.50;;;;;;;15.71;57.63;101469.84;5008868;28;20025;-74
2022/05/06 07:52:23;;;;;;;11.50;8.63;;;;;;;15.86;56.73;101465.22;5002857;28;20038;-72
2022/05/06 07:54:49;;;;;;;35.13;27.58;;;;;;;15.94;56.14;101466.88;5002974;28;20049;-72
2022/05/06 07:57:14;;;;;;;17.88;13.23;;;;;;;16.04;55.19;101466.78;5010752;28;20037;-72
2022/05/06 07:59:39;;;;;;;14.93;11.60;;;;;;;16.18;55.23;101457.66;5008114;28;20057;-72
2022/05/06 08:04:50;;;;;;;13.60;8.05;;;;;;;16.38;52.96;101461.84;5009494;28;20500;-72
2022/05/06 08:07:16;;;;;;;14.88;8.38;;;;;;;16.41;52.62;101460.00;5004658;28;20173;-72
2022/05/06 08:09:42;;;;;;;13.77;9.32;;;;;;;16.51;52.48;101465.19;5002034;28;20397;-72
2022/05/06 08:12:09;;;;;;;11.23;5.63;;;;;;;16.54;50.81;101458.00;5010145;28;20045;-72
2022/05/06 08:14:34;;;;;;;19.17;12.38;;;;;;;16.67;50.80;101471.16;5010287;28;20132;-71
2022/05/06 08:17:00;;;;;;;26.30;17.42;;;;;;;16.89;51.17;101458.34;5007294;28;20500;-72
2022/05/06 08:19:25;;;;;;;18.70;14.10;;;;;;;17.08;50.75;101460.69;5006835;28;20041;-72
2022/05/06 08:21:51;;;;;;;11.30;7.10;;;;;;;17.16;49.66;101464.97;5009545;28;20125;-72
2022/05/06 08:24:17;;;;;;;15.00;10.52;;;;;;;17.30;49.45;101458.47;5005247;28;20125;-72
2022/05/06 08:26:43;;;;;;;13.40;11.98;;;;;;;17.43;49.75;101456.44;5003461;28;20049;-72
2022/05/06 08:29:08;;;;;;;16.80;11.50;;;;;;;17.63;49.42;101455.16;5007042;28;20037;-71
2022/05/06 08:31:37;;;;;;;16.55;10.75;;;;;;;17.82;48.69;101456.56;5003365;28;20175;-72
2022/05/06 08:34:10;;;;;;;12.10;7.07;;;;;;;17.90;47.58;101453.75;5010717;28;20117;-72
2022/05/06 08:36:37;;;;;;;12.40;5.90;;;;;;;17.98;47.30;101450.91;5011394;28;20064;-72
2022/05/06 08:39:03;;;;;;;10.20;6.05;;;;;;;17.81;46.54;101454.81;5005788;28;20438;-72
2022/05/06 08:41:29;;;;;;;10.35;5.53;;;;;;;17.92;47.47;101463.47;5004745;28;20476;-72
2022/05/06 08:43:55;;;;;;;9.25;5.47;;;;;;;17.96;46.29;101459.81;5010140;28;20054;-72
2022/05/06 08:51:53;;;;;;;10.52;6.25;;;;;;;18.77;44.91;101448.16;5005408;28;20651;-72
2022/05/06 08:54:19;;;;;;;9.15;5.25;;;;;;;18.93;44.32;101445.97;5005756;28;20036;-72
2022/05/06 08:56:45;;;;;;;11.13;4.80;;;;;;;18.93;44.79;101448.63;5008198;28;20386;-72
2022/05/06 08:59:10;;;;;;;7.05;4.95;;;;;;;18.87;43.74;101443.44;5004959;28;20040;-72
2022/05/06 09:01:35;;;;;;;7.90;5.10;;;;;;;18.48;44.96;101448.84;5008584;28;20034;-72
2022/05/06 09:04:01;;;;;;;11.60;5.07;;;;;;;18.34;44.99;101450.06;5007791;28;20046;-72
2022/05/06 09:06:28;;;;;;;9.27;4.43;;;;;;;18.37;45.31;101449.97;5005683;28;20049;-72
2022/05/06 09:08:56;;;;;;;8.60;4.53;;;;;;;18.64;44.42;101444.00;5011302;28;20033;-72
2022/05/06 09:14:12;;;;;;;10.63;6.00;;;;;;;19.39;42.91;101440.22;5006700;28;20038;-72
2022/05/06 09:16:40;;;;;;;6.55;3.90;;;;;;;19.75;41.36;101449.94;5006872;28;20489;-72
2022/05/06 09:19:15;;;;;;;9.70;3.35;;;;;;;19.81;40.02;101447.09;5008153;28;20112;-72
2022/05/06 09:21:58;;;;;;;5.85;3.60;;;;;;;19.54;40.90;101446.94;5005641;28;20776;-72
2022/05/06 09:24:27;;;;;;;7.95;3.60;;;;;;;19.37;40.89;101446.56;5007205;28;20408;-72
2022/05/06 09:26:58;;;;;;;6.00;3.20;;;;;;;19.26;41.20;101445.06;5011670;28;20025;-72
2022/05/06 09:29:41;;;;;;;6.80;2.85;;;;;;;19.24;40.16;101460.25;5004368;28;20034;-72
2022/05/06 09:32:22;;;;;;;6.93;2.90;;;;;;;19.20;41.25;101444.31;5011629;28;20037;-72
2022/05/06 09:35:13;;;;;;;10.65;5.88;;;;;;;19.30;41.16;101453.84;5007776;28;20153;-72
2022/05/06 09:37:47;;;;;;;8.88;3.55;;;;;;;19.15;40.93;101457.84;5003789;28;20512;-72
2022/05/06 09:40:20;;;;;;;37.35;28.63;;;;;;;19.01;41.19;101458.19;5006142;28;20037;-72
2022/05/06 09:42:55;;;;;;;8.05;3.63;;;;;;;19.20;41.80;101450.59;5009105;28;20124;-72
2022/05/06 09:45:37;;;;;;;7.18;3.17;;;;;;;18.68;40.50;101449.25;5005598;28;20092;-72
2022/05/06 09:48:04;;;;;;;8.32;3.10;;;;;;;18.77;41.25;101450.81;5004889;28;20036;-72
2022/05/06 09:50:32;;;;;;;6.75;3.38;;;;;;;19.01;40.62;101451.97;5003736;28;20038;-72
2022/05/06 09:53:02;;;;;;;6.78;3.70;;;;;;;19.38;39.91;101445.63;5002292;28;20038;-72
2022/05/06 09:55:29;;;;;;;8.63;4.30;;;;;;;19.85;39.55;101446.06;5002205;28;20038;-72
2022/05/06 09:57:59;;;;;;;7.47;5.30;;;;;;;20.32;38.83;101446.38;5004235;28;20492;-72
2022/05/06 10:00:27;;;;;;;6.45;2.60;;;;;;;20.76;38.02;101438.72;5006653;28;20378;-72
2022/05/06 10:02:54;;;;;;;6.93;2.85;;;;;;;20.87;37.20;101432.97;5011610;28;20496;-72
2022/05/06 10:05:20;;;;;;;10.13;5.82;;;;;;;21.23;37.47;101430.81;5007628;28;20044;-72
2022/05/06 10:07:46;;;;;;;8.80;3.33;;;;;;;21.63;36.33;101421.28;5012856;28;20408;-73
2022/05/06 10:10:22;;;;;;;8.00;2.55;;;;;;;21.75;35.47;101422.66;5008185;28;20040;-72
2022/05/06 10:12:53;;;;;;;6.75;2.75;;;;;;;21.35;35.31;101427.69;5006414;28;20555;-72
2022/05/06 10:15:20;;;;;;;6.78;4.15;;;;;;;21.33;35.97;101426.84;5006679;28;20045;-72
2022/05/06 10:17:48;;;;;;;6.90;3.35;;;;;;;21.33;36.66;101426.84;5010315;28;20034;-73
2022/05/06 10:20:33;;;;;;;5.35;3.03;;;;;;;21.11;34.86;101420.50;5009827;28;20497;-72
2022/05/06 10:22:59;;;;;;;6.50;2.17;;;;;;;20.51;36.45;101425.22;5007555;28;20041;-73
2022/05/06 10:25:40;;;;;;;5.18;2.55;;;;;;;20.28;37.21;101418.81;5009026;28;20121;-72
2022/05/06 10:34:08;;;;;;;10.50;5.72;;;;;;;20.47;38.38;101411.03;5010507;28;20492;-72
2022/05/06 10:36:47;;;;;;;7.18;3.80;;;;;;;20.98;37.34;101398.59;5008710;28;20389;-72
2022/05/06 10:39:20;;;;;;;5.60;2.15;;;;;;;21.32;36.40;101408.09;5004426;28;20587;-73
2022/05/06 10:42:03;;;;;;;6.03;2.75;;;;;;;21.66;36.28;101397.00;5003149;28;20374;-72
2022/05/06 10:44:34;;;;;;;8.55;5.70;;;;;;;21.96;35.43;101394.94;5006965;28;20049;-72
2022/05/06 10:47:00;;;;;;;5.88;3.22;;;;;;;21.74;34.76;101389.50;5007150;28;20080;-73
2022/05/06 10:49:34;;;;;;;5.32;2.13;;;;;;;22.07;32.87;101391.81;5011282;28;20034;-73
2022/05/06 10:52:20;;;;;;;6.25;2.75;;;;;;;21.84;32.88;101385.53;5008513;28;20120;-73
2022/05/06 10:54:54;;;;;;;4.00;1.58;;;;;;;21.64;33.40;101383.63;5002560;28;20096;-73
2022/05/06 10:57:23;;;;;;;3.25;1.40;;;;;;;21.42;33.17;101380.88;5000808;28;20042;-73
2022/05/06 11:00:02;;;;;;;2.47;1.05;;;;;;;21.17;32.52;101386.28;5002982;28;20042;-72
2022/05/06 11:02:36;;;;;;;2.42;1.10;;;;;;;21.26;32.77;101387.72;5002719;28;20046;-72
2022/05/06 11:05:03;;;;;;;2.28;1.30;;;;;;;21.51;33.57;101382.34;5000926;28;20038;-73
2022/05/06 11:07:30;;;;;;;5.75;1.50;;;;;;;21.85;32.59;101378.34;5003543;28;20393;-73
2022/05/06 11:09:56;;;;;;;7.50;3.45;;;;;;;22.21;32.67;101376.00;5002304;28;20034;-73
2022/05/06 11:12:44;;;;;;;5.40;1.73;;;;;;;22.31;31.48;101366.63;5001650;28;20048;-73
2022/05/06 11:15:20;;;;;;;9.20;1.70;;;;;;;22.64;31.44;101373.34;5002812;28;20085;-73
2022/05/06 11:17:46;;;;;;;4.55;2.90;;;;;;;23.24;31.48;101373.38;5000779;28;20038;-73
2022/05/06 11:20:18;;;;;;;4.22;2.55;;;;;;;23.71;30.41;101370.28;5002668;28;20034;-73
2022/05/06 11:22:54;;;;;;;2.83;1.00;;;;;;;23.94;28.75;101371.91;5002581;28;20045;-73
2022/05/06 11:25:24;;;;;;;4.22;1.58;;;;;;;24.08;29.41;101368.53;5003626;28;20041;-73
2022/05/06 11:27:51;;;;;;;3.35;1.38;;;;;;;24.31;29.53;101359.31;5002264;28;20416;-73
2022/05/06 11:30:18;;;;;;;4.38;1.55;;;;;;;24.16;29.09;101355.56;5001148;28;20543;-73
2022/05/06 11:32:49;;;;;;;3.78;1.70;;;;;;;24.04;28.43;101363.31;5003497;28;20071;-73
2022/05/06 11:35:19;;;;;;;2.63;1.15;;;;;;;24.05;27.74;101359.69;5003409;28;20408;-73
2022/05/06 11:37:45;;;;;;;3.30;1.40;;;;;;;24.03;28.36;101356.19;5002621;28;20042;-73
2022/05/06 11:42:50;;;;;;;3.35;1.80;;;;;;;24.76;28.17;101345.31;5001524;28;20042;-73
2022/05/06 11:48:07;;;;;;;1.55;0.63;;;;;;;25.67;26.08;101353.91;5001308;28;20038;-73
2022/05/06 11:50:33;;;;;;;1.83;0.68;;;;;;;24.95;27.41;101349.75;5004262;28;20416;-73
2022/05/06 11:53:01;;;;;;;3.95;1.90;;;;;;;24.96;27.53;101355.03;5003178;28;20030;-73
2022/05/06 11:55:27;;;;;;;1.38;0.70;;;;;;;24.76;27.15;101350.72;5000739;28;20143;-73
2022/05/06 11:57:53;;;;;;;2.03;1.02;;;;;;;24.75;27.14;101348.09;5001714;28;20116;-73
2022/05/06 12:00:20;;;;;;;2.55;1.05;;;;;;;25.11;26.92;101345.25;5001809;28;20557;-73
2022/05/06 12:02:50;;;;;;;1.95;0.50;;;;;;;25.12;26.56;101342.44;5000486;28;20452;-73
2022/05/06 12:05:15;;;;;;;1.25;0.60;;;;;;;24.82;26.30;101353.09;4999913;28;20078;-73
2022/05/06 12:07:45;;;;;;;1.20;0.52;;;;;;;24.21;26.63;101350.81;5002374;28;20069;-73
2022/05/06 12:10:28;;;;;;;1.15;0.50;;;;;;;23.50;28.70;101346.13;5004932;28;20041;-73
2022/05/06 12:12:57;;;;;;;2.10;0.68;;;;;;;23.24;28.26;101349.16;5000523;28;20128;-73
2022/05/06 12:15:37;;;;;;;1.30;0.50;;;;;;;23.19;28.32;101341.31;5003694;28;20407;-73
2022/05/06 12:18:05;;;;;;;1.98;0.57;;;;;;;23.33;28.66;101340.66;5000494;28;20468;-73